sensor_id;sensor_type;location;lat;lon;timestamp;temperature;humidity
21672;DHT22;10997;52.242;8.168;2022-08-19T00:04:37;18.00;99.90
21672;DHT22;10997;52.242;8.168;2022-08-19T00:09:38;17.90;99.90
21672;DHT22;10997;52.242;8.168;2022-08-19T00:14:39;18.00;99.90
21672;DHT22;10997;52.242;8.168;2022-08-19T00:19:41;18.00;99.90
21672;DHT22;10997;52.242;8.168;2022-08-19T00:24:41;18.00;99.90
21672;DHT22;10997;52.242;8.168;2022-08-19T00:29:43;17.90;99.90
21672;DHT22;10997;52.242;8.168;2022-08-19T00:34:44;17.90;99.90
21672;DHT22;10997;52.242;8.168;2022-08-19T00:39:45;17.80;99.90
21672;DHT22;10997;52.242;8.168;2022-08-19T00:44:46;17.90;99.90
21672;DHT22;10997;52.242;8.168;2022-08-19T00:49:50;17.80;99.90
21672;DHT22;10997;52.242;8.168;2022-08-19T00:54:52;17.70;99.90
21672;DHT22;10997;52.242;8.168;2022-08-19T00:59:55;17.60;99.90
21672;DHT22;10997;52.242;8.168;2022-08-19T01:04:57;17.60;99.90
21672;DHT22;10997;52.242;8.168;2022-08-19T01:09:57;17.50;99.90
21672;DHT22;10997;52.242;8.168;2022-08-19T01:14:59;17.40;99.90
21672;DHT22;10997;52.242;8.168;2022-08-19T01:20:00;17.30;99.90
21672;DHT22;10997;52.242;8.168;2022-08-19T01:25:01;17.00;99.90
21672;DHT22;10997;52.242;8.168;2022-08-19T01:30:04;16.80;99.90
21672;DHT22;10997;52.242;8.168;2022-08-19T01:35:06;16.80;99.90
21672;DHT22;10997;52.242;8.168;2022-08-19T01:40:08;16.70;99.90
21672;DHT22;10997;52.242;8.168;2022-08-19T01:45:09;16.70;99.90
21672;DHT22;10997;52.242;8.168;2022-08-19T01:50:11;16.60;99.90
21672;DHT22;10997;52.242;8.168;2022-08-19T01:55:15;16.50;99.90
21672;DHT22;10997;52.242;8.168;2022-08-19T02:00:19;16.60;99.90
21672;DHT22;10997;52.242;8.168;2022-08-19T02:05:21;16.70;99.90
21672;DHT22;10997;52.242;8.168;2022-08-19T02:10:22;16.70;99.90
21672;DHT22;10997;52.242;8.168;2022-08-19T02:15:23;16.70;99.90
21672;DHT22;10997;52.242;8.168;2022-08-19T02:20:26;16.50;99.90
21672;DHT22;10997;52.242;8.168;2022-08-19T02:25:27;16.20;99.90
21672;DHT22;10997;52.242;8.168;2022-08-19T02:30:28;16.10;99.90
21672;DHT22;10997;52.242;8.168;2022-08-19T02:35:29;16.20;99.90
21672;DHT22;10997;52.242;8.168;2022-08-19T02:40:30;16.20;99.90
21672;DHT22;10997;52.242;8.168;2022-08-19T02:45:36;16.20;99.90
21672;DHT22;10997;52.242;8.168;2022-08-19T02:50:38;16.20;99.90
21672;DHT22;10997;52.242;8.168;2022-08-19T02:55:43;16.00;99.90
21672;DHT22;10997;52.242;8.168;2022-08-19T03:00:50;16.10;99.90
21672;DHT22;10997;52.242;8.168;2022-08-19T03:05:51;16.10;99.90
21672;DHT22;10997;52.242;8.168;2022-08-19T03:10:51;16.00;99.90
21672;DHT22;10997;52.242;8.168;2022-08-19T03:15:53;16.00;99.90
21672;DHT22;10997;52.242;8.168;2022-08-19T03:20:56;15.90;99.90
21672;DHT22;10997;52.242;8.168;2022-08-19T03:25:57;16.00;99.90
21672;DHT22;10997;52.242;8.168;2022-08-19T03:31:01;16.00;99.90
21672;DHT22;10997;52.242;8.168;2022-08-19T03:36:11;16.00;99.90
21672;DHT22;10997;52.242;8.168;2022-08-19T03:41:15;16.00;99.90
21672;DHT22;10997;52.242;8.168;2022-08-19T03:46:24;16.10;99.90
21672;DHT22;10997;52.242;8.168;2022-08-19T03:51:34;16.10;99.90
21672;DHT22;10997;52.242;8.168;2022-08-19T03:56:37;16.10;99.90
21672;DHT22;10997;52.242;8.168;2022-08-19T04:01:44;16.00;99.90
21672;DHT22;10997;52.242;8.168;2022-08-19T04:06:44;15.90;99.90
21672;DHT22;10997;52.242;8.168;2022-08-19T04:11:49;15.80;99.90
21672;DHT22;10997;52.242;8.168;2022-08-19T04:16:51;15.80;99.90
21672;DHT22;10997;52.242;8.168;2022-08-19T04:21:53;15.80;99.90
21672;DHT22;10997;52.242;8.168;2022-08-19T04:26:54;15.90;99.90
21672;DHT22;10997;52.242;8.168;2022-08-19T04:31:56;15.90;99.90
21672;DHT22;10997;52.242;8.168;2022-08-19T04:37:00;15.80;99.90
21672;DHT22;10997;52.242;8.168;2022-08-19T04:42:00;15.80;99.90
21672;DHT22;10997;52.242;8.168;2022-08-19T04:47:20;15.90;99.90
21672;DHT22;10997;52.242;8.168;2022-08-19T04:52:21;15.90;99.90
21672;DHT22;10997;52.242;8.168;2022-08-19T04:57:24;16.00;99.90
21672;DHT22;10997;52.242;8.168;2022-08-19T05:02:26;15.90;99.90
21672;DHT22;10997;52.242;8.168;2022-08-19T05:07:27;15.90;99.90
21672;DHT22;10997;52.242;8.168;2022-08-19T05:12:28;15.90;99.90
21672;DHT22;10997;52.242;8.168;2022-08-19T05:17:29;15.90;99.90
21672;DHT22;10997;52.242;8.168;2022-08-19T05:22:29;16.00;99.90
21672;DHT22;10997;52.242;8.168;2022-08-19T05:27:35;16.20;99.90
21672;DHT22;10997;52.242;8.168;2022-08-19T05:32:35;16.30;99.90
21672;DHT22;10997;52.242;8.168;2022-08-19T05:37:36;16.30;99.90
21672;DHT22;10997;52.242;8.168;2022-08-19T05:42:37;16.40;99.90
21672;DHT22;10997;52.242;8.168;2022-08-19T05:47:38;16.50;99.90
21672;DHT22;10997;52.242;8.168;2022-08-19T05:52:39;16.60;99.90
21672;DHT22;10997;52.242;8.168;2022-08-19T05:57:39;16.70;99.90
21672;DHT22;10997;52.242;8.168;2022-08-19T06:02:40;16.80;99.90
21672;DHT22;10997;52.242;8.168;2022-08-19T06:07:41;16.90;99.90
21672;DHT22;10997;52.242;8.168;2022-08-19T06:12:42;17.00;99.90
21672;DHT22;10997;52.242;8.168;2022-08-19T06:17:42;17.00;99.90
21672;DHT22;10997;52.242;8.168;2022-08-19T06:22:46;17.30;99.90
21672;DHT22;10997;52.242;8.168;2022-08-19T06:27:48;17.50;99.90
21672;DHT22;10997;52.242;8.168;2022-08-19T06:32:49;17.70;99.90
21672;DHT22;10997;52.242;8.168;2022-08-19T06:37:50;18.00;99.90
21672;DHT22;10997;52.242;8.168;2022-08-19T06:42:51;18.20;99.90
21672;DHT22;10997;52.242;8.168;2022-08-19T06:47:53;18.50;99.90
21672;DHT22;10997;52.242;8.168;2022-08-19T06:52:56;18.70;99.90
21672;DHT22;10997;52.242;8.168;2022-08-19T06:57:57;18.90;99.90
21672;DHT22;10997;52.242;8.168;2022-08-19T07:02:57;19.20;99.90
21672;DHT22;10997;52.242;8.168;2022-08-19T07:07:59;19.60;99.90
21672;DHT22;10997;52.242;8.168;2022-08-19T07:12:59;19.90;99.90
21672;DHT22;10997;52.242;8.168;2022-08-19T07:18:00;20.20;99.90
21672;DHT22;10997;52.242;8.168;2022-08-19T07:23:01;20.20;99.90
21672;DHT22;10997;52.242;8.168;2022-08-19T07:28:02;20.40;99.90
21672;DHT22;10997;52.242;8.168;2022-08-19T07:33:03;20.60;99.90
21672;DHT22;10997;52.242;8.168;2022-08-19T07:38:03;20.80;99.90
21672;DHT22;10997;52.242;8.168;2022-08-19T07:43:04;20.90;99.90
21672;DHT22;10997;52.242;8.168;2022-08-19T07:48:05;21.10;99.90
21672;DHT22;10997;52.242;8.168;2022-08-19T07:53:06;21.30;99.90
21672;DHT22;10997;52.242;8.168;2022-08-19T07:58:07;21.40;99.90
21672;DHT22;10997;52.242;8.168;2022-08-19T08:03:08;21.50;99.90
21672;DHT22;10997;52.242;8.168;2022-08-19T08:08:09;21.70;99.90
21672;DHT22;10997;52.242;8.168;2022-08-19T08:13:42;21.70;99.90
21672;DHT22;10997;52.242;8.168;2022-08-19T08:18:43;21.80;99.90
21672;DHT22;10997;52.242;8.168;2022-08-19T08:23:43;22.10;99.90
21672;DHT22;10997;52.242;8.168;2022-08-19T08:28:44;22.30;99.90
21672;DHT22;10997;52.242;8.168;2022-08-19T08:33:48;22.30;99.90
21672;DHT22;10997;52.242;8.168;2022-08-19T08:38:49;22.20;99.90
21672;DHT22;10997;52.242;8.168;2022-08-19T08:43:51;22.30;99.90
21672;DHT22;10997;52.242;8.168;2022-08-19T08:49:02;22.30;99.90
21672;DHT22;10997;52.242;8.168;2022-08-19T08:54:12;22.50;99.90
21672;DHT22;10997;52.242;8.168;2022-08-19T08:59:21;22.70;99.90
21672;DHT22;10997;52.242;8.168;2022-08-19T09:04:27;22.70;99.90
21672;DHT22;10997;52.242;8.168;2022-08-19T09:09:33;23.00;99.90
21672;DHT22;10997;52.242;8.168;2022-08-19T09:19:57;23.40;99.90
21672;DHT22;10997;52.242;8.168;2022-08-19T09:24:58;23.70;99.90
21672;DHT22;10997;52.242;8.168;2022-08-19T09:29:59;24.00;99.90
21672;DHT22;10997;52.242;8.168;2022-08-19T09:35:00;24.20;99.90
21672;DHT22;10997;52.242;8.168;2022-08-19T09:40:03;24.50;99.90
21672;DHT22;10997;52.242;8.168;2022-08-19T09:45:05;25.10;99.90
21672;DHT22;10997;52.242;8.168;2022-08-19T09:50:07;25.60;99.90
21672;DHT22;10997;52.242;8.168;2022-08-19T09:55:09;25.30;99.90
21672;DHT22;10997;52.242;8.168;2022-08-19T10:00:11;25.40;99.90
21672;DHT22;10997;52.242;8.168;2022-08-19T10:05:11;25.60;99.90
21672;DHT22;10997;52.242;8.168;2022-08-19T10:10:35;25.90;99.90
21672;DHT22;10997;52.242;8.168;2022-08-19T10:15:36;26.40;99.90
21672;DHT22;10997;52.242;8.168;2022-08-19T10:20:39;25.40;99.90
21672;DHT22;10997;52.242;8.168;2022-08-19T10:25:42;25.50;99.90
21672;DHT22;10997;52.242;8.168;2022-08-19T10:30:43;25.60;99.90
21672;DHT22;10997;52.242;8.168;2022-08-19T10:35:43;26.10;99.90
21672;DHT22;10997;52.242;8.168;2022-08-19T10:40:44;26.40;99.90
21672;DHT22;10997;52.242;8.168;2022-08-19T10:45:52;26.10;99.90
21672;DHT22;10997;52.242;8.168;2022-08-19T10:50:57;26.20;99.90
21672;DHT22;10997;52.242;8.168;2022-08-19T10:56:18;26.40;99.90
21672;DHT22;10997;52.242;8.168;2022-08-19T11:01:37;26.70;99.90
21672;DHT22;10997;52.242;8.168;2022-08-19T11:06:39;27.00;99.90
21672;DHT22;10997;52.242;8.168;2022-08-19T11:11:41;27.50;99.90
21672;DHT22;10997;52.242;8.168;2022-08-19T11:16:42;27.70;99.90
21672;DHT22;10997;52.242;8.168;2022-08-19T11:21:47;27.50;99.90
21672;DHT22;10997;52.242;8.168;2022-08-19T11:26:50;27.60;99.90
21672;DHT22;10997;52.242;8.168;2022-08-19T11:31:51;27.70;99.90
21672;DHT22;10997;52.242;8.168;2022-08-19T11:36:52;28.20;99.90
21672;DHT22;10997;52.242;8.168;2022-08-19T11:41:53;28.30;99.80
21672;DHT22;10997;52.242;8.168;2022-08-19T11:46:53;28.40;99.70
21672;DHT22;10997;52.242;8.168;2022-08-19T11:51:55;28.40;98.60
21672;DHT22;10997;52.242;8.168;2022-08-19T11:56:55;28.40;97.90
21672;DHT22;10997;52.242;8.168;2022-08-19T12:01:56;28.30;97.20
21672;DHT22;10997;52.242;8.168;2022-08-19T12:06:58;28.60;97.10
21672;DHT22;10997;52.242;8.168;2022-08-19T12:11:58;28.60;96.40
21672;DHT22;10997;52.242;8.168;2022-08-19T12:16:59;28.40;95.80
21672;DHT22;10997;52.242;8.168;2022-08-19T12:22:01;28.30;94.40
21672;DHT22;10997;52.242;8.168;2022-08-19T12:27:03;28.50;94.30
21672;DHT22;10997;52.242;8.168;2022-08-19T12:32:04;28.40;94.10
21672;DHT22;10997;52.242;8.168;2022-08-19T12:37:06;28.60;93.40
21672;DHT22;10997;52.242;8.168;2022-08-19T12:42:06;28.90;93.20
21672;DHT22;10997;52.242;8.168;2022-08-19T12:47:11;29.00;93.00
21672;DHT22;10997;52.242;8.168;2022-08-19T12:52:12;29.30;92.60
21672;DHT22;10997;52.242;8.168;2022-08-19T12:57:16;29.20;91.90
21672;DHT22;10997;52.242;8.168;2022-08-19T13:02:17;29.30;91.40
21672;DHT22;10997;52.242;8.168;2022-08-19T13:07:17;29.40;89.80
21672;DHT22;10997;52.242;8.168;2022-08-19T13:12:18;29.40;90.30
21672;DHT22;10997;52.242;8.168;2022-08-19T13:17:20;28.30;91.40
21672;DHT22;10997;52.242;8.168;2022-08-19T13:22:21;28.50;91.40
21672;DHT22;10997;52.242;8.168;2022-08-19T13:27:22;28.60;91.50
21672;DHT22;10997;52.242;8.168;2022-08-19T13:32:22;28.60;92.10
21672;DHT22;10997;52.242;8.168;2022-08-19T13:37:42;29.00;91.70
21672;DHT22;10997;52.242;8.168;2022-08-19T13:42:44;28.90;91.30
21672;DHT22;10997;52.242;8.168;2022-08-19T13:47:47;29.00;90.30
21672;DHT22;10997;52.242;8.168;2022-08-19T13:52:48;29.00;90.20
21672;DHT22;10997;52.242;8.168;2022-08-19T13:57:58;29.40;90.50
21672;DHT22;10997;52.242;8.168;2022-08-19T14:02:59;29.60;89.80
21672;DHT22;10997;52.242;8.168;2022-08-19T14:08:00;29.60;90.20
21672;DHT22;10997;52.242;8.168;2022-08-19T14:13:03;29.70;88.70
21672;DHT22;10997;52.242;8.168;2022-08-19T14:18:04;29.70;87.40
21672;DHT22;10997;52.242;8.168;2022-08-19T14:23:04;29.90;86.50
21672;DHT22;10997;52.242;8.168;2022-08-19T14:28:08;30.00;84.70
21672;DHT22;10997;52.242;8.168;2022-08-19T14:33:08;29.80;85.70
21672;DHT22;10997;52.242;8.168;2022-08-19T14:38:17;29.40;86.30
21672;DHT22;10997;52.242;8.168;2022-08-19T14:43:18;29.50;86.60
21672;DHT22;10997;52.242;8.168;2022-08-19T14:48:19;29.30;87.10
21672;DHT22;10997;52.242;8.168;2022-08-19T14:53:21;29.30;86.40
21672;DHT22;10997;52.242;8.168;2022-08-19T14:58:22;28.80;87.00
21672;DHT22;10997;52.242;8.168;2022-08-19T15:03:23;28.80;88.00
21672;DHT22;10997;52.242;8.168;2022-08-19T15:08:25;28.40;88.30
21672;DHT22;10997;52.242;8.168;2022-08-19T15:13:27;28.40;88.80
21672;DHT22;10997;52.242;8.168;2022-08-19T15:18:28;28.40;88.80
21672;DHT22;10997;52.242;8.168;2022-08-19T15:23:29;28.30;89.60
21672;DHT22;10997;52.242;8.168;2022-08-19T15:28:30;28.10;89.70
21672;DHT22;10997;52.242;8.168;2022-08-19T15:33:36;28.00;90.00
21672;DHT22;10997;52.242;8.168;2022-08-19T15:38:37;27.70;90.80
21672;DHT22;10997;52.242;8.168;2022-08-19T15:43:41;27.60;91.10
21672;DHT22;10997;52.242;8.168;2022-08-19T15:48:42;27.20;91.40
21672;DHT22;10997;52.242;8.168;2022-08-19T15:53:43;27.10;92.10
21672;DHT22;10997;52.242;8.168;2022-08-19T15:58:44;27.00;92.60
21672;DHT22;10997;52.242;8.168;2022-08-19T16:04:03;27.10;92.70
21672;DHT22;10997;52.242;8.168;2022-08-19T16:09:29;27.00;92.60
21672;DHT22;10997;52.242;8.168;2022-08-19T16:14:34;27.00;93.10
21672;DHT22;10997;52.242;8.168;2022-08-19T16:19:35;26.80;93.50
21672;DHT22;10997;52.242;8.168;2022-08-19T16:24:36;26.50;94.00
21672;DHT22;10997;52.242;8.168;2022-08-19T16:29:36;26.50;94.00
21672;DHT22;10997;52.242;8.168;2022-08-19T16:34:39;26.30;93.90
21672;DHT22;10997;52.242;8.168;2022-08-19T16:39:40;26.00;94.50
21672;DHT22;10997;52.242;8.168;2022-08-19T16:44:43;25.90;94.80
21672;DHT22;10997;52.242;8.168;2022-08-19T16:49:44;25.80;95.00
21672;DHT22;10997;52.242;8.168;2022-08-19T16:54:46;25.70;95.50
21672;DHT22;10997;52.242;8.168;2022-08-19T16:59:47;25.60;95.60
21672;DHT22;10997;52.242;8.168;2022-08-19T17:04:49;25.50;95.90
21672;DHT22;10997;52.242;8.168;2022-08-19T17:09:50;25.50;96.30
21672;DHT22;10997;52.242;8.168;2022-08-19T17:14:51;25.40;96.60
21672;DHT22;10997;52.242;8.168;2022-08-19T17:19:52;25.50;97.00
21672;DHT22;10997;52.242;8.168;2022-08-19T17:24:53;25.50;97.30
21672;DHT22;10997;52.242;8.168;2022-08-19T17:29:54;25.50;97.60
21672;DHT22;10997;52.242;8.168;2022-08-19T17:34:54;25.40;98.00
21672;DHT22;10997;52.242;8.168;2022-08-19T17:39:55;25.40;98.10
21672;DHT22;10997;52.242;8.168;2022-08-19T17:44:56;25.30;98.30
21672;DHT22;10997;52.242;8.168;2022-08-19T17:50:00;25.30;98.50
21672;DHT22;10997;52.242;8.168;2022-08-19T17:55:00;25.30;98.70
21672;DHT22;10997;52.242;8.168;2022-08-19T18:00:02;25.20;98.80
21672;DHT22;10997;52.242;8.168;2022-08-19T18:05:03;25.20;99.10
21672;DHT22;10997;52.242;8.168;2022-08-19T18:10:04;25.20;99.30
21672;DHT22;10997;52.242;8.168;2022-08-19T18:15:06;25.10;99.50
21672;DHT22;10997;52.242;8.168;2022-08-19T18:20:10;25.00;99.80
21672;DHT22;10997;52.242;8.168;2022-08-19T18:25:16;24.90;99.90
21672;DHT22;10997;52.242;8.168;2022-08-19T18:30:19;24.80;99.90
21672;DHT22;10997;52.242;8.168;2022-08-19T18:35:25;24.70;99.90
21672;DHT22;10997;52.242;8.168;2022-08-19T18:40:29;24.60;99.90
21672;DHT22;10997;52.242;8.168;2022-08-19T18:45:49;24.60;99.90
21672;DHT22;10997;52.242;8.168;2022-08-19T18:51:08;24.40;99.90
21672;DHT22;10997;52.242;8.168;2022-08-19T18:56:11;24.30;99.90
21672;DHT22;10997;52.242;8.168;2022-08-19T19:01:24;24.30;99.90
21672;DHT22;10997;52.242;8.168;2022-08-19T19:06:29;24.20;99.90
21672;DHT22;10997;52.242;8.168;2022-08-19T19:11:36;24.20;99.90
21672;DHT22;10997;52.242;8.168;2022-08-19T19:16:41;24.10;99.90
21672;DHT22;10997;52.242;8.168;2022-08-19T19:21:47;24.00;99.90
21672;DHT22;10997;52.242;8.168;2022-08-19T19:26:50;23.90;99.90
21672;DHT22;10997;52.242;8.168;2022-08-19T19:31:51;23.80;99.90
21672;DHT22;10997;52.242;8.168;2022-08-19T19:36:52;23.70;99.90
21672;DHT22;10997;52.242;8.168;2022-08-19T19:41:53;23.70;99.90
21672;DHT22;10997;52.242;8.168;2022-08-19T19:46:54;23.50;99.90
21672;DHT22;10997;52.242;8.168;2022-08-19T19:51:59;23.40;99.90
21672;DHT22;10997;52.242;8.168;2022-08-19T19:56:59;23.40;99.90
21672;DHT22;10997;52.242;8.168;2022-08-19T20:02:00;23.20;99.90
21672;DHT22;10997;52.242;8.168;2022-08-19T20:07:01;22.90;99.90
21672;DHT22;10997;52.242;8.168;2022-08-19T20:12:02;22.70;99.90
21672;DHT22;10997;52.242;8.168;2022-08-19T20:17:03;22.70;99.90
21672;DHT22;10997;52.242;8.168;2022-08-19T20:22:05;22.80;99.90
21672;DHT22;10997;52.242;8.168;2022-08-19T20:27:06;22.80;99.90
21672;DHT22;10997;52.242;8.168;2022-08-19T20:32:07;22.70;99.90
21672;DHT22;10997;52.242;8.168;2022-08-19T20:37:08;22.60;99.90
21672;DHT22;10997;52.242;8.168;2022-08-19T20:42:09;22.50;99.90
21672;DHT22;10997;52.242;8.168;2022-08-19T20:47:10;22.50;99.90
21672;DHT22;10997;52.242;8.168;2022-08-19T20:52:10;22.40;99.90
21672;DHT22;10997;52.242;8.168;2022-08-19T20:57:11;22.40;99.90
21672;DHT22;10997;52.242;8.168;2022-08-19T21:02:12;22.40;99.90
21672;DHT22;10997;52.242;8.168;2022-08-19T21:07:14;22.30;99.90
21672;DHT22;10997;52.242;8.168;2022-08-19T21:12:14;22.30;99.90
21672;DHT22;10997;52.242;8.168;2022-08-19T21:17:15;22.20;99.90
21672;DHT22;10997;52.242;8.168;2022-08-19T21:22:17;22.20;99.90
21672;DHT22;10997;52.242;8.168;2022-08-19T21:27:17;22.20;99.90
21672;DHT22;10997;52.242;8.168;2022-08-19T21:32:18;22.20;99.90
21672;DHT22;10997;52.242;8.168;2022-08-19T21:37:19;22.10;99.90
21672;DHT22;10997;52.242;8.168;2022-08-19T21:42:22;22.10;99.90
21672;DHT22;10997;52.242;8.168;2022-08-19T21:47:23;22.10;99.90
21672;DHT22;10997;52.242;8.168;2022-08-19T21:52:25;22.00;99.90
21672;DHT22;10997;52.242;8.168;2022-08-19T21:57:26;21.90;99.90
21672;DHT22;10997;52.242;8.168;2022-08-19T22:02:26;21.90;99.90
21672;DHT22;10997;52.242;8.168;2022-08-19T22:07:27;21.90;99.90
21672;DHT22;10997;52.242;8.168;2022-08-19T22:12:31;21.90;99.90
21672;DHT22;10997;52.242;8.168;2022-08-19T22:17:32;21.90;99.90
21672;DHT22;10997;52.242;8.168;2022-08-19T22:22:33;21.80;99.90
21672;DHT22;10997;52.242;8.168;2022-08-19T22:27:34;21.90;99.90
21672;DHT22;10997;52.242;8.168;2022-08-19T22:32:36;21.70;99.90
21672;DHT22;10997;52.242;8.168;2022-08-19T22:37:37;21.70;99.90
21672;DHT22;10997;52.242;8.168;2022-08-19T22:42:38;21.60;99.90
21672;DHT22;10997;52.242;8.168;2022-08-19T22:47:38;21.50;99.90
21672;DHT22;10997;52.242;8.168;2022-08-19T22:52:39;21.30;99.90
21672;DHT22;10997;52.242;8.168;2022-08-19T22:57:43;21.00;99.90
21672;DHT22;10997;52.242;8.168;2022-08-19T23:02:45;20.90;99.90
21672;DHT22;10997;52.242;8.168;2022-08-19T23:07:46;20.80;99.90
21672;DHT22;10997;52.242;8.168;2022-08-19T23:12:47;20.80;99.90
21672;DHT22;10997;52.242;8.168;2022-08-19T23:17:49;20.80;99.90
21672;DHT22;10997;52.242;8.168;2022-08-19T23:22:49;20.80;99.90
21672;DHT22;10997;52.242;8.168;2022-08-19T23:27:53;20.80;99.90
21672;DHT22;10997;52.242;8.168;2022-08-19T23:33:24;20.80;99.90
21672;DHT22;10997;52.242;8.168;2022-08-19T23:38:28;20.80;99.90
21672;DHT22;10997;52.242;8.168;2022-08-19T23:43:29;20.60;99.90
21672;DHT22;10997;52.242;8.168;2022-08-19T23:48:31;20.60;99.90
21672;DHT22;10997;52.242;8.168;2022-08-19T23:53:34;20.60;99.90
21672;DHT22;10997;52.242;8.168;2022-08-19T23:58:37;20.50;99.90
